Chepstow, United Kingdom
Current Conditions -  °F | °C
As of 6:20 AM on Wednesday 26 Nov 2014 (Local Time) from EGGD Reporting Station
Moderate Fog Moderate Fog  
Wind Chill: 39°   Ceiling: Unl
Heat Index: 43°   Visibility: 0.06mi
Dew Point: 41°   Wind: 7mph
Humidity: 93%   Direction: 20°NNE
Pressure: 29.88"   Gusts: NA
Location:  51.64°N, 2.68°W
Report Text: EGGD 260620Z 02006KT 0100 R27/0375 FG OVC000 06/05 Q1012
Loading
Personal Weather Stations






























Interactive Weather Map New forecast layout! Learn more

10-Day Weather Forecast

Advertisements
Track Severe Weather on mobile